Rumford, Rhode Island
Current Conditions -  °F | °C
As of 6:15 PM on Wednesday 22 Oct 2014 (Local Time) from KSFZ Reporting Station
Overcast Overcast  
Wind Chill: 41°   Ceiling: 600
Heat Index: 48°   Visibility: 4mi
Dew Point: 41°   Wind: 22mph
Humidity: 76%   Direction: 20°NNE
Pressure: 29.83"   Gusts: 30mph
Location:  41.85°N, 71.35°W
Report Text: KSFZ 222215Z 02019G26KT 4SM OVC006 09/05 A2983 RMK AO1 P0001
Loading
Personal Weather Stations






























Interactive Weather Map
Tropical Storm Tracking
New forecast layout! Learn more

10-Day Weather Forecast

Advertisements
Track Severe Weather on mobile